Aviation Digital Data Service (ADDS)

Output produced by METARs form (2037 UTC 21 July 2017)
found at http://www.aviationweather.gov/adds/metars/
 
TAF SBAT 211600Z 2118/2206 12010KT CAVOK TX35/2118Z TN20/2206Z 
     BECMG 2121/2123 09005KT RMK PEH
       
TAF SBAN 211600Z 2118/2206 12005KT 9000 NSC TX27/2119Z TN15/2205Z 
     FM212000 CAVOK RMK PCZ
       
TAF SBAR 211600Z 2118/2206 14011KT 8000 SCT018 TX25/2118Z TN24/2205Z 
     PROB40 
     TEMPO 2119/2121 5000 RA BKN015 
     PROB30 
     TEMPO 2201/2202 5000 SHRA BKN015 RMK PEI
       
TAF SBBG 211500Z 2118/2218 06005KT CAVOK TN05/2209Z TX18/2218Z RMK PE R
       
TAF SBBW 211600Z 2118/2206 07005KT 9000 NSC TX34/2118Z TN20/2205Z RMK PCZ
       
TAF SBBU 211500Z 2118/2206 28004KT CAVOK TX27/2118Z TN16/2205Z 
     BECMG 2121/2123 18004KT RMK PER
       
TAF SBBE 211600Z 2118/2218 13008KT 9999 SCT040 TN24/2208Z TX33/2217Z 
     BECMG 2122/2124 09005KT CAVOK 
     BECMG 2205/2207 09005KT 
     BECMG 2211/2213 1300 8KT 
     BECMG 2215/2217 SCT035 RMK PEH
       
TAF SBCF 211600Z 2118/2218 08005KT 9000 NSC TX25/2118Z TN12/2209Z 
     FM2 12000 CAVOK 
     FM221300 11010KT 9000 NSC RMK PCZ
       
TAF SBBV 211600Z 2118/2218 29005KT 9999 SCT015 BKN025 FEW035TCU TN24/ 2203Z TX28/2218Z 
     PROB30 
     TEMPO 2119/2122 5000 TSRA SCT010 BKN020 FEW025CB B ECMG 2122/2124 24005KT SCT025 FEW035TCU 
     BECMG 2205/2207 27005KT SCT005 SC T020 FEW025TCU 
     BECMG 2211/2213 30005KT 
     PROB30 
     TEMPO 2211/2215 3000 TSRA B KN005 BKN020 FEW025CB 
     BECMG 2215/2217 27005KT SCT015 SCT020 FEW030TCU RMK PEH
       
TAF SBLP 211600Z 2118/2206 20008KT 9999 SCT030 TX32/2118Z TN22/2205Z RMK PEI
       
TAF SBBR 211600Z 2118/2218 13005KT 9000 NSC TX27/2119Z TN12/2209Z 
     FM2 12000 CAVOK 
     FM221300 11010KT 9000 NSC RMK PCZ
       
TAF SBCB 212100Z 2200/2224 06005KT CAVOK TN19/2209Z TX29/2216Z 
     BECMG 2214/2216 09010KT RMK PHD
       
TAF SBKG 211600Z 2118/2206 15009KT 7000 BKN015 TX23/2118Z TN20/2204Z 
     TEMPO 2118/2121 4000 RA BKN012 
     BECMG 2122/2124 SCT007 BKN012
     TEMPO 2201/2203 3000 BR RMK PEI
       
TAF SBKP 2118/2218 32005KT CAVOK TX26/2118Z TN15/2208Z 
     BECMG 2118/2120 24005KT 
     BECMG 2121/2123 18005KT 
     BECMG 2123/2201 13010KT 
     BECMG 2204/2206 11005KT 
     BECMG 2211/2213 05005KT 
     BECMG 2213/2215 35005KT FEW040 RMK PGQ
       
TAF SBCG 211500Z 2118/2218 10005KT CAVOK TN16/2209Z TX28/2218Z RMK PE R
       
TAF SBCP 211500Z 2118/2206 12012KT CAVOK TX26/2118Z TN20/2201Z 
     BECMG 2121/2123 00000KT RMK PGX
       
TAF SBCR 211500Z 2118/2218 11005KT CAVOK TN16/2209Z TX29/2218Z RMK PE R
       
TAF SBCZ 211600Z 2118/2218 12005KT 9999 FEW030 TN15/2208Z TX31/2218Z 
     BECMG 2122/2124 00000KT 
     BECMG 2215/2217 13005KT RMK PEH
       
TAF SBCY 211600Z 2118/2218 15005KT CAVOK TN15/2209Z TX32/2218Z 
     BECMG 2122/2124 18003KT 
     BECMG 2208/2210 36005KT 
     BECMG 2215/2217 06008KT RMK PEH
       
TAF SBCT 211500Z 2118/2218 32005KT CAVOK TN08/2209Z TX19/2218Z 
     BECMG 2122/2124 11005KT 
     PROB40 2208/2212 0500 FG VV001 RMK PER
       
TAF SBBI 211500Z 2118/2206 31005KT CAVOK TX22/2118Z TN10/2205Z 
     BECMG 2122/2124 10005KT RMK PER
       
TAF SBFN 211600Z 2118/2206 11008KT 8000 SCT016 TX27/2118Z TN25/2122Z RMK PEI
       
TAF SBFL 211500Z 2118/2218 16005KT CAVOK TN14/2209Z TX20/2218Z 
     BECMG 2200/2202 18007KT 
     BECMG 2204/2206 24004KT 
     BECMG 2208/2210 28006KT 
     BECMG 2215/2 217 10005KT RMK PER
       
TAF SBFZ 211600Z 2118/2218 09009KT 8000 BKN017 FEW025TCU TN24/2207Z T X29/2215Z 
     TEMPO 2119/2121 5000 SHRA 
     BECMG 2200/2202 15007KT SCT020 
     TEMPO 2204/2206 5000 RA BKN017 
     TEMPO 2209/2210 4000 SHRA BKN01 4 FEW025TCU 
     BECMG 2211/2212 10011KT BKN020 FEW025TCU 
     BECMG 2114/2116 SCT030 RMK PEI
       
TAF SBFI 211500Z 2118/2218 12005KT CAVOK TN09/2209Z TX25/2218Z RMK PE R
       
TAF SBGO 211600Z 2118/2218 04008KT 9000 NSC TX30/2118Z TN14/2209Z 
     FM2 12000 CAVOK 
     FM221300 11010KT 9000 NSC RMK PCZ
       
TAF SBGW 211500Z 2118/2206 05005KT 9999 FEW025 TX24/2118Z TN18/2123Z 
     BECMG 2123/2201 21005KT RMK PGX
       
TAF SBIL 211600Z 2118/2206 17007KT 8000 SCT020 TX24/2118Z TN20/2204Z 
     BECMG 2122/2124 23004KT RMK PEI
       
TAF SBIZ 211600Z 2118/2206 13008KT 9999 SCT025 TX36/2118Z TN22/2206Z 
     BECMG 2122/2124 00000KT CAVOK RMK PEH
       
TAF SBIH 211600Z 2118/2206 24005KT 9999 FEW028 TX35/2118Z TN22/2206Z 
     BECMG 2122/2124 00000KT CAVOK RMK PEH